createdAt,value
2022-11-03T00:00:19.716Z,96.95
2022-11-03T00:03:41.917Z,96.68
2022-11-03T00:07:04.672Z,97.19
2022-11-03T00:10:26.520Z,96.69
2022-11-03T00:13:48.675Z,97.05
2022-11-03T00:17:10.094Z,96.97
2022-11-03T00:20:32.107Z,97.03
2022-11-03T00:23:55.581Z,96.63
2022-11-03T00:27:17.389Z,96.82
2022-11-03T00:30:40.859Z,96.85
2022-11-03T00:34:03.891Z,97.00
2022-11-03T00:37:25.577Z,97.12
2022-11-03T00:40:54.552Z,96.40
2022-11-03T00:44:16.348Z,96.53
2022-11-03T00:47:58.440Z,96.62
2022-11-03T00:51:21.569Z,96.66
2022-11-03T00:54:45.490Z,96.93
2022-11-03T00:58:08.704Z,96.67
2022-11-03T01:01:32.533Z,96.49
2022-11-03T01:05:12.187Z,96.71
2022-11-03T01:08:35.136Z,96.92
2022-11-03T01:12:01.675Z,97.03
2022-11-03T01:15:24.997Z,96.47
2022-11-03T01:18:46.562Z,96.85
2022-11-03T01:22:10.830Z,96.48
2022-11-03T01:25:32.821Z,96.86
2022-11-03T01:28:55.266Z,96.93
2022-11-03T01:32:19.002Z,96.60
2022-11-03T01:35:40.874Z,96.88
2022-11-03T01:39:02.414Z,97.03
2022-11-03T01:42:23.903Z,97.35
2022-11-03T01:45:46.503Z,97.17
2022-11-03T01:49:16.397Z,97.21
2022-11-03T01:52:43.672Z,97.82
2022-11-03T01:56:06.396Z,96.93
2022-11-03T01:59:29.213Z,97.04
2022-11-03T02:02:52.591Z,97.78
2022-11-03T02:06:17.033Z,97.38
2022-11-03T02:09:38.503Z,97.21
2022-11-03T02:13:00.653Z,97.57
2022-11-03T02:16:24.743Z,97.04
2022-11-03T02:19:51.475Z,97.15
2022-11-03T02:23:28.316Z,97.00
2022-11-03T02:26:55.335Z,96.81
2022-11-03T02:30:17.453Z,97.24
2022-11-03T02:33:47.339Z,97.00
2022-11-03T02:37:16.763Z,97.26
2022-11-03T02:40:43.101Z,97.91
2022-11-03T02:44:09.162Z,98.25
2022-11-03T02:47:32.720Z,97.52
2022-11-03T02:50:56.185Z,98.19
2022-11-03T02:54:24.279Z,98.49
2022-11-03T02:57:51.243Z,98.21
2022-11-03T03:01:20.637Z,98.44
2022-11-03T03:04:43.600Z,98.33
2022-11-03T03:08:09.101Z,98.25
2022-11-03T03:11:40.505Z,98.79
2022-11-03T03:15:05.510Z,98.79
2022-11-03T03:18:34.345Z,98.16
2022-11-03T03:21:59.456Z,98.77
2022-11-03T03:25:26.282Z,98.41
2022-11-03T03:28:53.477Z,98.54
2022-11-03T03:32:19.863Z,99.12
2022-11-03T03:35:46.711Z,99.16
2022-11-03T03:39:11.829Z,99.05
2022-11-03T03:42:36.244Z,98.90
2022-11-03T03:46:02.457Z,98.86
2022-11-03T03:49:24.358Z,98.76
2022-11-03T03:52:47.203Z,99.29
2022-11-03T03:56:09.179Z,99.01
2022-11-03T03:59:31.293Z,98.96
2022-11-03T04:02:52.871Z,99.17
2022-11-03T04:06:15.029Z,99.78
2022-11-03T04:09:38.580Z,100.00
2022-11-03T04:13:18.370Z,100.00
2022-11-03T04:16:58.261Z,100.00
2022-11-03T04:20:38.094Z,100.00
2022-11-03T04:24:00.978Z,100.00
2022-11-03T04:27:42.686Z,99.94
2022-11-03T04:31:04.599Z,100.00
2022-11-03T04:34:26.682Z,100.00
2022-11-03T04:37:53.055Z,100.00
2022-11-03T04:41:17.913Z,100.00
2022-11-03T04:44:41.412Z,100.00
2022-11-03T04:48:10.895Z,100.00
2022-11-03T04:51:36.138Z,100.00
2022-11-03T04:54:58.103Z,100.00
2022-11-03T04:58:22.260Z,100.00
2022-11-03T05:01:47.297Z,100.00
2022-11-03T05:05:18.301Z,100.00
2022-11-03T05:08:40.503Z,100.00
2022-11-03T05:12:02.524Z,100.00
2022-11-03T05:15:33.353Z,100.00
2022-11-03T05:18:57.695Z,100.00
2022-11-03T05:22:23.652Z,99.99
2022-11-03T05:25:49.276Z,99.93
2022-11-03T05:29:17.564Z,100.00
2022-11-03T05:32:40.525Z,99.96
2022-11-03T05:36:15.369Z,99.71
2022-11-03T05:39:42.214Z,100.00
2022-11-03T05:43:09.745Z,99.68
2022-11-03T05:46:37.870Z,100.00
2022-11-03T05:50:13.105Z,100.00
2022-11-03T05:53:39.858Z,99.75
2022-11-03T05:57:03.644Z,99.99
2022-11-03T06:00:35.410Z,100.00
2022-11-03T06:03:59.417Z,100.00
2022-11-03T06:07:26.754Z,100.00
2022-11-03T06:10:52.374Z,100.00
2022-11-03T06:14:24.386Z,99.79
2022-11-03T06:17:47.420Z,100.00
2022-11-03T06:21:14.377Z,99.85
2022-11-03T06:24:37.624Z,100.00
2022-11-03T06:28:06.730Z,99.79
2022-11-03T06:31:30.916Z,100.00
2022-11-03T06:34:57.669Z,100.00
2022-11-03T06:38:23.436Z,100.00
2022-11-03T06:41:45.953Z,100.00
2022-11-03T06:45:20.777Z,100.00
2022-11-03T06:48:43.698Z,99.97
2022-11-03T06:52:22.704Z,99.96
2022-11-03T06:55:45.634Z,100.00
2022-11-03T06:59:14.803Z,100.00
2022-11-03T07:02:57.772Z,100.00
2022-11-03T07:06:24.895Z,100.00
2022-11-03T07:09:47.898Z,100.00
2022-11-03T07:13:16.386Z,100.00
2022-11-03T07:16:43.338Z,100.00
2022-11-03T07:20:16.429Z,100.00
2022-11-03T07:23:42.134Z,100.00
2022-11-03T07:27:18.118Z,100.00
2022-11-03T07:30:40.876Z,99.92
2022-11-03T07:34:03.627Z,100.00
2022-11-03T07:37:28.636Z,100.00
2022-11-03T07:40:53.458Z,99.87
2022-11-03T07:44:21.209Z,100.00
2022-11-03T07:47:46.433Z,99.95
2022-11-03T07:51:22.288Z,100.00
2022-11-03T07:54:46.786Z,99.81
2022-11-03T07:58:22.547Z,100.00
2022-11-03T08:01:47.418Z,100.00
2022-11-03T08:05:11.396Z,99.35
2022-11-03T08:08:34.393Z,99.29
2022-11-03T08:11:58.895Z,99.32
2022-11-03T08:15:21.742Z,98.93
2022-11-03T08:18:44.813Z,98.69
2022-11-03T08:22:07.360Z,98.93
2022-11-03T08:25:30.328Z,99.18
2022-11-03T08:28:54.609Z,99.33
2022-11-03T08:32:17.680Z,98.86
2022-11-03T08:35:41.356Z,98.48
2022-11-03T08:39:05.456Z,99.53
2022-11-03T08:42:28.294Z,98.48
2022-11-03T08:45:54.331Z,98.62
2022-11-03T08:49:17.286Z,98.68
2022-11-03T08:52:40.345Z,98.53
2022-11-03T08:56:03.409Z,98.16
2022-11-03T08:59:26.581Z,98.79
2022-11-03T09:02:51.070Z,98.15
2022-11-03T09:06:13.623Z,97.83
2022-11-03T09:13:19.453Z,97.19
2022-11-03T09:16:42.451Z,96.62
2022-11-03T09:20:08.196Z,96.04
2022-11-03T09:23:30.645Z,96.86
2022-11-03T09:26:55.965Z,96.97
2022-11-03T09:30:22.296Z,96.58
2022-11-03T09:33:45.366Z,97.41
2022-11-03T09:37:09.961Z,97.05
2022-11-03T09:40:34.834Z,96.30
2022-11-03T09:44:01.002Z,95.76
2022-11-03T09:47:27.127Z,95.94
2022-11-03T09:50:53.987Z,96.38
2022-11-03T09:54:19.394Z,96.64
2022-11-03T09:57:42.163Z,95.25
2022-11-03T10:01:05.037Z,95.35
2022-11-03T10:04:30.473Z,95.60
2022-11-03T10:11:23.924Z,95.99
2022-11-03T10:14:48.316Z,96.17
2022-11-03T10:19:00.947Z,95.25
2022-11-03T10:22:24.418Z,95.47
2022-11-03T10:25:47.893Z,95.25
2022-11-03T10:29:21.603Z,95.42
2022-11-03T10:32:47.526Z,94.23
2022-11-03T10:36:25.851Z,94.23
2022-11-03T10:39:49.020Z,92.99
2022-11-03T10:43:13.822Z,94.08
2022-11-03T10:46:50.585Z,93.95
2022-11-03T10:50:26.467Z,93.32
2022-11-03T10:53:51.263Z,93.19
2022-11-03T10:57:14.946Z,93.58
2022-11-03T11:00:37.723Z,93.93
2022-11-03T11:04:02.530Z,93.85
2022-11-03T11:07:28.223Z,94.45
2022-11-03T11:10:51.192Z,94.02
2022-11-03T11:14:24.802Z,93.63
2022-11-03T11:17:50.522Z,93.74
2022-11-03T11:21:48.195Z,93.51
2022-11-03T11:25:12.895Z,93.48
2022-11-03T11:28:35.647Z,93.88
2022-11-03T11:31:58.714Z,94.08
2022-11-03T11:36:00.687Z,94.50
2022-11-03T11:39:47.096Z,95.23
2022-11-03T11:43:30.644Z,95.43
2022-11-03T11:46:53.497Z,95.21
2022-11-03T11:50:24.547Z,95.23
2022-11-03T11:53:58.765Z,95.21
2022-11-03T11:57:37.092Z,95.75
2022-11-03T12:01:03.836Z,96.01
2022-11-03T12:04:31.960Z,95.37
2022-11-03T12:07:55.081Z,95.51
2022-11-03T12:11:37.907Z,94.82
2022-11-03T12:15:00.973Z,94.88
2022-11-03T12:18:42.556Z,95.27
2022-11-03T12:22:12.596Z,95.60
2022-11-03T12:25:40.571Z,95.39
2022-11-03T12:29:03.223Z,95.50
2022-11-03T12:32:33.615Z,95.88
2022-11-03T12:35:59.899Z,95.99
2022-11-03T12:39:23.366Z,95.66
2022-11-03T12:42:46.544Z,95.95
2022-11-03T12:46:09.597Z,96.16
2022-11-03T12:49:32.252Z,95.56
2022-11-03T12:52:56.845Z,95.71
2022-11-03T12:56:21.033Z,96.03
2022-11-03T12:59:43.795Z,95.35
2022-11-03T13:03:07.419Z,95.26
2022-11-03T13:06:30.736Z,95.11
2022-11-03T13:09:55.333Z,95.52
2022-11-03T13:13:18.290Z,95.65
2022-11-03T13:16:40.947Z,95.81
2022-11-03T13:20:03.890Z,96.26
2022-11-03T13:23:27.682Z,96.13
2022-11-03T13:26:52.078Z,96.40
2022-11-03T13:30:15.347Z,96.17
2022-11-03T13:33:38.099Z,95.82
2022-11-03T13:37:01.265Z,95.92
2022-11-03T13:44:09.306Z,96.71
2022-11-03T13:47:40.475Z,97.23
2022-11-03T13:51:18.125Z,97.05
2022-11-03T16:35:39.001Z,99.87
2022-11-03T16:39:01.213Z,99.50
2022-11-03T16:42:23.428Z,99.40
2022-11-03T16:45:45.720Z,100.00
2022-11-03T16:49:08.082Z,99.64
2022-11-03T16:52:31.559Z,100.00
2022-11-03T16:55:53.736Z,99.80
2022-11-03T16:59:15.686Z,99.38
2022-11-03T17:02:37.756Z,100.00
2022-11-03T17:05:59.755Z,100.00
2022-11-03T17:09:23.284Z,100.00
2022-11-03T17:12:45.123Z,100.00
2022-11-03T17:16:08.618Z,100.00
2022-11-03T17:19:30.710Z,100.00
2022-11-03T17:22:52.682Z,100.00
2022-11-03T17:26:16.405Z,100.00
2022-11-03T17:29:42.261Z,100.00
2022-11-03T17:33:10.359Z,100.00
2022-11-03T17:36:33.647Z,100.00
2022-11-03T17:39:56.888Z,100.00
2022-11-03T17:43:22.781Z,100.00
2022-11-03T17:46:44.736Z,100.00
2022-11-03T17:50:07.087Z,100.00
2022-11-03T17:53:32.110Z,100.00
2022-11-03T17:56:54.007Z,100.00
2022-11-03T18:00:21.970Z,100.00
2022-11-03T18:03:43.851Z,100.00
2022-11-03T18:07:12.982Z,100.00
2022-11-03T18:10:36.840Z,100.00
2022-11-03T18:13:57.346Z,100.00
2022-11-03T18:17:20.575Z,100.00
2022-11-03T18:20:51.898Z,100.00
2022-11-03T18:24:18.300Z,100.00
2022-11-03T18:27:40.333Z,100.00
2022-11-03T18:31:02.082Z,100.00
2022-11-03T18:34:28.245Z,100.00
2022-11-03T18:37:51.880Z,100.00
2022-11-03T18:41:29.232Z,100.00
2022-11-03T18:44:51.290Z,100.00
2022-11-03T18:48:19.476Z,100.00
2022-11-03T18:51:51.199Z,100.00
2022-11-03T18:55:13.930Z,100.00
2022-11-03T18:58:35.891Z,100.00
2022-11-03T19:01:58.134Z,100.00
2022-11-03T19:05:20.544Z,100.00
2022-11-03T19:08:46.650Z,100.00
2022-11-03T19:12:11.645Z,100.00
2022-11-03T19:15:33.448Z,100.00
2022-11-03T19:18:55.305Z,100.00
2022-11-03T19:22:18.650Z,100.00
2022-11-03T19:25:44.121Z,100.00
2022-11-03T19:29:10.731Z,100.00
2022-11-03T19:32:36.970Z,100.00
2022-11-03T19:35:59.185Z,100.00
2022-11-03T19:39:26.328Z,100.00
2022-11-03T19:42:49.883Z,100.00
2022-11-03T19:46:18.946Z,100.00
2022-11-03T19:49:40.659Z,100.00
2022-11-03T19:53:04.579Z,100.00
2022-11-03T19:56:26.449Z,100.00
2022-11-03T19:59:50.235Z,100.00
2022-11-03T20:03:12.610Z,100.00
2022-11-03T20:06:34.905Z,100.00
2022-11-03T20:09:56.835Z,100.00
2022-11-03T20:13:22.189Z,100.00
2022-11-03T20:16:45.531Z,100.00
2022-11-03T20:20:08.446Z,100.00
2022-11-03T20:23:34.356Z,100.00
2022-11-03T20:26:56.473Z,100.00
2022-11-03T20:30:21.335Z,100.00
2022-11-03T20:33:44.907Z,100.00
2022-11-03T20:37:16.915Z,100.00
2022-11-03T20:40:38.959Z,100.00
2022-11-03T20:44:01.088Z,100.00
2022-11-03T20:47:23.385Z,100.00
2022-11-03T20:50:46.919Z,100.00
2022-11-03T20:54:16.143Z,100.00
2022-11-03T20:57:38.676Z,100.00
2022-11-03T21:01:01.534Z,100.00
2022-11-03T21:04:23.591Z,100.00
2022-11-03T21:07:47.322Z,100.00
2022-11-03T21:11:27.787Z,100.00
2022-11-03T21:15:03.755Z,100.00
2022-11-03T21:18:43.437Z,100.00
2022-11-03T21:25:59.035Z,100.00
2022-11-03T21:29:38.968Z,100.00
2022-11-03T21:33:03.114Z,100.00
2022-11-03T21:36:25.263Z,100.00
2022-11-03T21:39:47.751Z,100.00
2022-11-03T21:43:29.455Z,100.00
2022-11-03T21:46:51.469Z,100.00
2022-11-03T21:50:13.269Z,100.00
2022-11-03T21:53:34.945Z,100.00
2022-11-03T21:56:57.165Z,100.00
2022-11-03T22:00:20.432Z,100.00
2022-11-03T22:03:42.399Z,100.00
2022-11-03T22:07:04.829Z,100.00
2022-11-03T22:10:26.809Z,100.00
2022-11-03T22:13:48.766Z,100.00
2022-11-03T22:17:10.905Z,100.00
2022-11-03T22:20:50.413Z,100.00
2022-11-03T22:24:30.113Z,100.00
2022-11-03T22:27:52.096Z,100.00
2022-11-03T22:31:31.232Z,100.00
2022-11-03T22:35:11.834Z,100.00
2022-11-03T22:38:56.828Z,100.00
2022-11-03T22:42:36.357Z,100.00
2022-11-03T22:45:58.683Z,100.00
2022-11-03T22:49:20.380Z,100.00
2022-11-03T22:52:43.886Z,100.00
2022-11-03T22:56:05.933Z,100.00
2022-11-03T22:59:27.943Z,100.00
2022-11-03T23:02:49.426Z,100.00
2022-11-03T23:06:13.353Z,100.00
2022-11-03T23:09:36.631Z,100.00
2022-11-03T23:12:58.616Z,100.00
2022-11-03T23:16:22.973Z,100.00
2022-11-03T23:20:02.488Z,100.00
2022-11-03T23:23:44.474Z,100.00
2022-11-03T23:27:08.376Z,100.00
2022-11-03T23:30:30.453Z,100.00
2022-11-03T23:33:52.768Z,100.00
2022-11-03T23:37:14.894Z,100.00
2022-11-03T23:40:36.620Z,100.00
2022-11-03T23:44:00.101Z,100.00
2022-11-03T23:47:39.922Z,100.00
2022-11-03T23:51:02.228Z,100.00
2022-11-03T23:54:24.542Z,100.00
2022-11-03T23:58:04.277Z,100.00
